sensor_id;sensor_type;location;lat;lon;timestamp;pressure;altitude;pressure_sealevel;temperature;humidity
58662;BME280;44432;49.786;22.760;2023-03-01T00:02:19;100626.27;;;-4.55;81.67
58662;BME280;44432;49.786;22.760;2023-03-01T00:04:50;100625.34;;;-4.57;81.68
58662;BME280;44432;49.786;22.760;2023-03-01T00:07:21;100623.20;;;-4.59;81.71
58662;BME280;44432;49.786;22.760;2023-03-01T00:09:52;100627.78;;;-4.61;81.69
58662;BME280;44432;49.786;22.760;2023-03-01T00:12:23;100624.32;;;-4.64;81.88
58662;BME280;44432;49.786;22.760;2023-03-01T00:14:53;100622.33;;;-4.68;81.65
58662;BME280;44432;49.786;22.760;2023-03-01T00:17:24;100621.78;;;-4.68;81.86
58662;BME280;44432;49.786;22.760;2023-03-01T00:19:55;100623.01;;;-4.68;81.98
58662;BME280;44432;49.786;22.760;2023-03-01T00:22:27;100616.52;;;-4.69;82.01
58662;BME280;44432;49.786;22.760;2023-03-01T00:24:58;100611.75;;;-4.70;82.05
58662;BME280;44432;49.786;22.760;2023-03-01T00:27:29;100612.32;;;-4.71;82.06
58662;BME280;44432;49.786;22.760;2023-03-01T00:29:59;100612.73;;;-4.72;82.10
58662;BME280;44432;49.786;22.760;2023-03-01T00:32:30;100608.84;;;-4.73;82.26
58662;BME280;44432;49.786;22.760;2023-03-01T00:35:01;100613.13;;;-4.72;82.31
58662;BME280;44432;49.786;22.760;2023-03-01T00:37:31;100609.05;;;-4.73;82.40
58662;BME280;44432;49.786;22.760;2023-03-01T00:40:02;100602.18;;;-4.74;82.54
58662;BME280;44432;49.786;22.760;2023-03-01T00:42:35;100598.61;;;-4.74;82.44
58662;BME280;44432;49.786;22.760;2023-03-01T00:45:08;100602.44;;;-4.75;82.63
58662;BME280;44432;49.786;22.760;2023-03-01T00:47:38;100597.53;;;-4.76;82.45
58662;BME280;44432;49.786;22.760;2023-03-01T00:50:11;100597.38;;;-4.77;82.58
58662;BME280;44432;49.786;22.760;2023-03-01T00:52:41;100594.64;;;-4.77;82.57
58662;BME280;44432;49.786;22.760;2023-03-01T00:55:12;100587.48;;;-4.78;82.66
58662;BME280;44432;49.786;22.760;2023-03-01T00:57:43;100584.61;;;-4.79;82.48
58662;BME280;44432;49.786;22.760;2023-03-01T01:00:15;100581.79;;;-4.81;82.65
58662;BME280;44432;49.786;22.760;2023-03-01T01:02:45;100582.90;;;-4.82;82.57
58662;BME280;44432;49.786;22.760;2023-03-01T01:05:16;100584.02;;;-4.84;82.32
58662;BME280;44432;49.786;22.760;2023-03-01T01:07:50;100579.66;;;-4.86;82.40
58662;BME280;44432;49.786;22.760;2023-03-01T01:10:20;100576.14;;;-4.87;82.56
58662;BME280;44432;49.786;22.760;2023-03-01T01:12:51;100571.05;;;-4.92;82.56
58662;BME280;44432;49.786;22.760;2023-03-01T01:15:22;100575.89;;;-4.89;82.64
58662;BME280;44432;49.786;22.760;2023-03-01T01:17:52;100577.50;;;-4.90;82.50
58662;BME280;44432;49.786;22.760;2023-03-01T01:20:23;100576.23;;;-4.92;82.56
58662;BME280;44432;49.786;22.760;2023-03-01T01:22:54;100570.80;;;-4.94;82.66
58662;BME280;44432;49.786;22.760;2023-03-01T01:25:25;100564.15;;;-4.95;82.65
58662;BME280;44432;49.786;22.760;2023-03-01T01:27:56;100566.52;;;-4.97;82.47
58662;BME280;44432;49.786;22.760;2023-03-01T01:30:26;100564.05;;;-4.99;82.47
58662;BME280;44432;49.786;22.760;2023-03-01T01:32:57;100569.30;;;-5.01;82.59
58662;BME280;44432;49.786;22.760;2023-03-01T01:35:28;100571.80;;;-5.03;82.50
58662;BME280;44432;49.786;22.760;2023-03-01T01:37:59;100575.46;;;-5.04;82.69
58662;BME280;44432;49.786;22.760;2023-03-01T01:40:29;100571.38;;;-5.05;82.56
58662;BME280;44432;49.786;22.760;2023-03-01T01:43:00;100566.99;;;-5.06;82.94
58662;BME280;44432;49.786;22.760;2023-03-01T01:45:33;100564.32;;;-5.07;82.79
58662;BME280;44432;49.786;22.760;2023-03-01T01:48:10;100558.39;;;-5.08;82.85
58662;BME280;44432;49.786;22.760;2023-03-01T01:50:42;100554.09;;;-5.12;82.74
58662;BME280;44432;49.786;22.760;2023-03-01T01:53:17;100552.16;;;-5.14;82.54
58662;BME280;44432;49.786;22.760;2023-03-01T01:55:53;100552.59;;;-5.16;82.59
58662;BME280;44432;49.786;22.760;2023-03-01T01:58:27;100548.18;;;-5.17;82.99
58662;BME280;44432;49.786;22.760;2023-03-01T02:00:59;100545.52;;;-5.18;82.81
58662;BME280;44432;49.786;22.760;2023-03-01T02:03:32;100544.02;;;-5.19;82.72
58662;BME280;44432;49.786;22.760;2023-03-01T02:06:10;100542.77;;;-5.21;82.77
58662;BME280;44432;49.786;22.760;2023-03-01T02:08:43;100542.02;;;-5.23;82.76
58662;BME280;44432;49.786;22.760;2023-03-01T02:11:15;100538.69;;;-5.25;82.62
58662;BME280;44432;49.786;22.760;2023-03-01T02:13:48;100541.27;;;-5.25;82.81
58662;BME280;44432;49.786;22.760;2023-03-01T02:16:20;100542.05;;;-5.27;82.82
58662;BME280;44432;49.786;22.760;2023-03-01T02:18:51;100541.14;;;-5.29;82.79
58662;BME280;44432;49.786;22.760;2023-03-01T02:21:41;100537.39;;;-5.29;82.85
58662;BME280;44432;49.786;22.760;2023-03-01T02:24:24;100536.09;;;-5.31;82.91
58662;BME280;44432;49.786;22.760;2023-03-01T02:26:59;100537.89;;;-5.33;82.64
58662;BME280;44432;49.786;22.760;2023-03-01T02:29:31;100533.15;;;-5.33;82.93
58662;BME280;44432;49.786;22.760;2023-03-01T02:32:03;100529.98;;;-5.35;82.84
58662;BME280;44432;49.786;22.760;2023-03-01T02:34:35;100530.40;;;-5.37;82.67
58662;BME280;44432;49.786;22.760;2023-03-01T02:37:08;100529.28;;;-5.38;82.73
58662;BME280;44432;49.786;22.760;2023-03-01T02:39:44;100532.06;;;-5.39;82.99
58662;BME280;44432;49.786;22.760;2023-03-01T02:42:21;100531.45;;;-5.41;82.76
58662;BME280;44432;49.786;22.760;2023-03-01T02:44:53;100528.38;;;-5.40;82.94
58662;BME280;44432;49.786;22.760;2023-03-01T02:47:24;100528.25;;;-5.41;82.98
58662;BME280;44432;49.786;22.760;2023-03-01T02:49:54;100529.13;;;-5.42;82.93
58662;BME280;44432;49.786;22.760;2023-03-01T02:52:37;100532.62;;;-5.43;83.03
58662;BME280;44432;49.786;22.760;2023-03-01T02:55:14;100532.85;;;-5.44;82.99
58662;BME280;44432;49.786;22.760;2023-03-01T02:57:44;100531.74;;;-5.46;82.82
58662;BME280;44432;49.786;22.760;2023-03-01T03:00:19;100532.06;;;-5.48;82.97
58662;BME280;44432;49.786;22.760;2023-03-01T03:02:52;100532.13;;;-5.50;83.15
58662;BME280;44432;49.786;22.760;2023-03-01T03:05:25;100538.16;;;-5.50;83.20
58662;BME280;44432;49.786;22.760;2023-03-01T03:07:57;100542.16;;;-5.51;83.24
58662;BME280;44432;49.786;22.760;2023-03-01T03:10:30;100546.34;;;-5.52;83.21
58662;BME280;44432;49.786;22.760;2023-03-01T03:13:03;100552.20;;;-5.53;83.19
58662;BME280;44432;49.786;22.760;2023-03-01T03:15:34;100559.77;;;-5.54;83.25
58662;BME280;44432;49.786;22.760;2023-03-01T03:18:07;100565.95;;;-5.54;83.28
58662;BME280;44432;49.786;22.760;2023-03-01T03:20:38;100559.50;;;-5.55;83.20
58662;BME280;44432;49.786;22.760;2023-03-01T03:23:09;100553.88;;;-5.56;83.08
58662;BME280;44432;49.786;22.760;2023-03-01T03:25:40;100549.52;;;-5.57;83.08
58662;BME280;44432;49.786;22.760;2023-03-01T03:28:11;100546.70;;;-5.60;83.08
58662;BME280;44432;49.786;22.760;2023-03-01T03:30:42;100542.19;;;-5.62;83.04
58662;BME280;44432;49.786;22.760;2023-03-01T03:33:13;100539.11;;;-5.62;83.25
58662;BME280;44432;49.786;22.760;2023-03-01T03:35:46;100542.05;;;-5.63;83.28
58662;BME280;44432;49.786;22.760;2023-03-01T03:38:18;100536.05;;;-5.66;83.36
58662;BME280;44432;49.786;22.760;2023-03-01T03:41:00;100540.63;;;-5.65;83.45
58662;BME280;44432;49.786;22.760;2023-03-01T03:43:33;100543.77;;;-5.66;83.10
58662;BME280;44432;49.786;22.760;2023-03-01T03:46:05;100538.50;;;-5.67;83.14
58662;BME280;44432;49.786;22.760;2023-03-01T03:48:37;100540.27;;;-5.68;83.37
58662;BME280;44432;49.786;22.760;2023-03-01T03:51:11;100550.08;;;-5.69;83.26
58662;BME280;44432;49.786;22.760;2023-03-01T03:53:42;100553.23;;;-5.70;83.28
58662;BME280;44432;49.786;22.760;2023-03-01T03:56:13;100552.23;;;-5.71;83.20
58662;BME280;44432;49.786;22.760;2023-03-01T03:58:44;100547.52;;;-5.72;83.33
58662;BME280;44432;49.786;22.760;2023-03-01T04:01:15;100547.38;;;-5.73;83.26
58662;BME280;44432;49.786;22.760;2023-03-01T04:03:45;100544.48;;;-5.73;83.39
58662;BME280;44432;49.786;22.760;2023-03-01T04:06:16;100538.00;;;-5.74;83.35
58662;BME280;44432;49.786;22.760;2023-03-01T04:08:47;100541.61;;;-5.74;83.65
58662;BME280;44432;49.786;22.760;2023-03-01T04:11:20;100540.73;;;-5.77;83.53
58662;BME280;44432;49.786;22.760;2023-03-01T04:13:58;100541.02;;;-5.76;83.44
58662;BME280;44432;49.786;22.760;2023-03-01T04:16:29;100541.87;;;-5.76;83.63
58662;BME280;44432;49.786;22.760;2023-03-01T04:19:00;100539.33;;;-5.76;83.23
58662;BME280;44432;49.786;22.760;2023-03-01T04:21:30;100540.36;;;-5.76;83.58
58662;BME280;44432;49.786;22.760;2023-03-01T04:24:01;100536.64;;;-5.77;83.32
58662;BME280;44432;49.786;22.760;2023-03-01T04:26:33;100536.34;;;-5.78;83.39
58662;BME280;44432;49.786;22.760;2023-03-01T04:29:03;100538.96;;;-5.79;83.47
58662;BME280;44432;49.786;22.760;2023-03-01T04:31:34;100544.68;;;-5.80;83.52
58662;BME280;44432;49.786;22.760;2023-03-01T04:34:05;100544.75;;;-5.82;83.45
58662;BME280;44432;49.786;22.760;2023-03-01T04:36:35;100550.94;;;-5.82;83.61
58662;BME280;44432;49.786;22.760;2023-03-01T04:39:06;100558.67;;;-5.82;83.44
58662;BME280;44432;49.786;22.760;2023-03-01T04:41:41;100559.06;;;-5.83;83.46
58662;BME280;44432;49.786;22.760;2023-03-01T04:44:13;100556.05;;;-5.85;83.43
58662;BME280;44432;49.786;22.760;2023-03-01T04:46:44;100555.77;;;-5.86;83.27
58662;BME280;44432;49.786;22.760;2023-03-01T04:49:14;100550.21;;;-5.88;83.45
58662;BME280;44432;49.786;22.760;2023-03-01T04:51:45;100544.31;;;-5.89;83.34
58662;BME280;44432;49.786;22.760;2023-03-01T04:54:16;100543.21;;;-5.92;83.36
58662;BME280;44432;49.786;22.760;2023-03-01T04:56:47;100543.33;;;-5.94;83.29
58662;BME280;44432;49.786;22.760;2023-03-01T04:59:17;100536.21;;;-5.96;83.46
58662;BME280;44432;49.786;22.760;2023-03-01T05:01:52;100534.89;;;-5.97;83.55
58662;BME280;44432;49.786;22.760;2023-03-01T05:04:25;100535.94;;;-5.97;83.46
58662;BME280;44432;49.786;22.760;2023-03-01T05:06:55;100536.15;;;-5.98;83.53
58662;BME280;44432;49.786;22.760;2023-03-01T05:09:27;100536.01;;;-5.98;83.49
58662;BME280;44432;49.786;22.760;2023-03-01T05:11:58;100541.36;;;-5.99;83.47
58662;BME280;44432;49.786;22.760;2023-03-01T05:14:29;100539.63;;;-5.99;83.37
58662;BME280;44432;49.786;22.760;2023-03-01T05:16:59;100541.71;;;-5.99;83.39
58662;BME280;44432;49.786;22.760;2023-03-01T05:19:33;100548.86;;;-5.98;83.41
58662;BME280;44432;49.786;22.760;2023-03-01T05:22:04;100555.16;;;-5.97;83.43
58662;BME280;44432;49.786;22.760;2023-03-01T05:24:36;100552.02;;;-5.96;83.69
58662;BME280;44432;49.786;22.760;2023-03-01T05:27:07;100552.83;;;-5.95;83.32
58662;BME280;44432;49.786;22.760;2023-03-01T05:29:38;100551.78;;;-5.95;83.30
58662;BME280;44432;49.786;22.760;2023-03-01T05:32:09;100550.39;;;-5.95;83.35
58662;BME280;44432;49.786;22.760;2023-03-01T05:34:44;100551.23;;;-5.94;83.31
58662;BME280;44432;49.786;22.760;2023-03-01T05:37:16;100559.05;;;-5.93;83.38
58662;BME280;44432;49.786;22.760;2023-03-01T05:39:47;100561.88;;;-5.91;83.47
58662;BME280;44432;49.786;22.760;2023-03-01T05:42:19;100558.61;;;-5.91;83.48
58662;BME280;44432;49.786;22.760;2023-03-01T05:44:50;100560.28;;;-5.87;83.20
58662;BME280;44432;49.786;22.760;2023-03-01T05:47:21;100557.55;;;-5.84;83.28
58662;BME280;44432;49.786;22.760;2023-03-01T05:49:51;100556.04;;;-5.81;83.47
58662;BME280;44432;49.786;22.760;2023-03-01T05:52:22;100554.67;;;-5.78;83.33
58662;BME280;44432;49.786;22.760;2023-03-01T05:54:53;100557.92;;;-5.75;83.21
58662;BME280;44432;49.786;22.760;2023-03-01T05:57:24;100555.68;;;-5.71;83.21
58662;BME280;44432;49.786;22.760;2023-03-01T05:59:55;100555.88;;;-5.68;83.08
58662;BME280;44432;49.786;22.760;2023-03-01T06:02:25;100555.55;;;-5.65;82.98
58662;BME280;44432;49.786;22.760;2023-03-01T06:04:56;100548.01;;;-5.62;82.88
58662;BME280;44432;49.786;22.760;2023-03-01T06:07:27;100549.71;;;-5.58;82.95
58662;BME280;44432;49.786;22.760;2023-03-01T06:09:57;100550.36;;;-5.54;83.12
58662;BME280;44432;49.786;22.760;2023-03-01T06:12:31;100552.87;;;-5.50;82.81
58662;BME280;44432;49.786;22.760;2023-03-01T06:15:02;100549.81;;;-5.44;83.05
58662;BME280;44432;49.786;22.760;2023-03-01T06:17:37;100546.23;;;-5.38;82.96
58662;BME280;44432;49.786;22.760;2023-03-01T06:20:11;100542.09;;;-5.31;83.14
58662;BME280;44432;49.786;22.760;2023-03-01T06:22:42;100536.60;;;-5.24;83.14
58662;BME280;44432;49.786;22.760;2023-03-01T06:25:15;100529.59;;;-5.18;83.10
58662;BME280;44432;49.786;22.760;2023-03-01T06:27:46;100528.23;;;-5.13;82.95
58662;BME280;44432;49.786;22.760;2023-03-01T06:30:19;100522.02;;;-5.06;83.07
58662;BME280;44432;49.786;22.760;2023-03-01T06:32:50;100517.09;;;-4.97;83.01
58662;BME280;44432;49.786;22.760;2023-03-01T06:35:21;100514.04;;;-4.88;83.19
58662;BME280;44432;49.786;22.760;2023-03-01T06:37:52;100506.16;;;-4.80;83.39
58662;BME280;44432;49.786;22.760;2023-03-01T06:40:23;100505.71;;;-4.68;83.21
58662;BME280;44432;49.786;22.760;2023-03-01T06:42:53;100505.23;;;-4.57;83.29
58662;BME280;44432;49.786;22.760;2023-03-01T06:45:25;100506.11;;;-4.45;83.37
58662;BME280;44432;49.786;22.760;2023-03-01T06:48:03;100505.36;;;-4.35;83.28
58662;BME280;44432;49.786;22.760;2023-03-01T06:50:35;100512.77;;;-4.20;83.37
58662;BME280;44432;49.786;22.760;2023-03-01T06:53:06;100516.61;;;-4.07;83.36
58662;BME280;44432;49.786;22.760;2023-03-01T06:55:36;100511.55;;;-3.94;83.19
58662;BME280;44432;49.786;22.760;2023-03-01T06:58:08;100512.17;;;-3.81;83.18
58662;BME280;44432;49.786;22.760;2023-03-01T07:00:39;100508.30;;;-3.69;83.13
58662;BME280;44432;49.786;22.760;2023-03-01T07:03:12;100504.41;;;-3.58;82.86
58662;BME280;44432;49.786;22.760;2023-03-01T07:05:42;100510.52;;;-3.48;82.72
58662;BME280;44432;49.786;22.760;2023-03-01T07:08:13;100504.88;;;-3.38;82.58
58662;BME280;44432;49.786;22.760;2023-03-01T07:10:44;100508.18;;;-3.27;82.51
58662;BME280;44432;49.786;22.760;2023-03-01T07:13:15;100506.98;;;-3.16;82.60
58662;BME280;44432;49.786;22.760;2023-03-01T07:15:45;100503.87;;;-3.05;82.38
58662;BME280;44432;49.786;22.760;2023-03-01T07:18:16;100501.51;;;-2.95;82.22
58662;BME280;44432;49.786;22.760;2023-03-01T07:20:47;100505.06;;;-2.86;82.03
58662;BME280;44432;49.786;22.760;2023-03-01T07:23:17;100496.38;;;-2.77;81.99
58662;BME280;44432;49.786;22.760;2023-03-01T07:25:53;100491.50;;;-2.68;81.84
58662;BME280;44432;49.786;22.760;2023-03-01T07:28:25;100492.81;;;-2.59;81.77
58662;BME280;44432;49.786;22.760;2023-03-01T07:30:58;100494.05;;;-2.51;81.63
58662;BME280;44432;49.786;22.760;2023-03-01T07:33:31;100492.67;;;-2.44;81.66
58662;BME280;44432;49.786;22.760;2023-03-01T07:36:03;100489.05;;;-2.36;81.55
58662;BME280;44432;49.786;22.760;2023-03-01T07:38:34;100485.37;;;-2.27;81.64
58662;BME280;44432;49.786;22.760;2023-03-01T07:41:05;100478.80;;;-2.16;81.61
58662;BME280;44432;49.786;22.760;2023-03-01T07:43:36;100473.52;;;-2.05;81.71
58662;BME280;44432;49.786;22.760;2023-03-01T07:46:07;100475.14;;;-1.95;81.64
58662;BME280;44432;49.786;22.760;2023-03-01T07:48:37;100481.27;;;-1.84;81.31
58662;BME280;44432;49.786;22.760;2023-03-01T07:51:09;100484.45;;;-1.75;80.67
58662;BME280;44432;49.786;22.760;2023-03-01T07:53:40;100487.40;;;-1.65;80.63
58662;BME280;44432;49.786;22.760;2023-03-01T07:56:13;100489.38;;;-1.56;80.41
58662;BME280;44432;49.786;22.760;2023-03-01T07:58:46;100489.46;;;-1.45;80.45
58662;BME280;44432;49.786;22.760;2023-03-01T08:01:17;100485.67;;;-1.33;80.53
58662;BME280;44432;49.786;22.760;2023-03-01T08:03:49;100477.95;;;-1.21;80.23
58662;BME280;44432;49.786;22.760;2023-03-01T08:06:19;100477.42;;;-1.09;80.03
58662;BME280;44432;49.786;22.760;2023-03-01T08:08:50;100476.23;;;-0.98;79.88
58662;BME280;44432;49.786;22.760;2023-03-01T08:11:21;100468.53;;;-0.87;79.76
58662;BME280;44432;49.786;22.760;2023-03-01T08:13:52;100470.64;;;-0.75;79.72
58662;BME280;44432;49.786;22.760;2023-03-01T08:16:23;100478.12;;;-0.64;79.37
58662;BME280;44432;49.786;22.760;2023-03-01T08:19:09;100477.55;;;-0.52;79.31
58662;BME280;44432;49.786;22.760;2023-03-01T08:21:40;100477.95;;;-0.41;79.18
58662;BME280;44432;49.786;22.760;2023-03-01T08:24:11;100479.28;;;-0.30;78.82
58662;BME280;44432;49.786;22.760;2023-03-01T08:26:42;100469.92;;;-0.21;78.69
58662;BME280;44432;49.786;22.760;2023-03-01T08:29:13;100467.05;;;-0.10;78.11
58662;BME280;44432;49.786;22.760;2023-03-01T08:31:44;100459.47;;;-0.02;78.10
58662;BME280;44432;49.786;22.760;2023-03-01T08:34:16;100461.50;;;0.10;77.89
58662;BME280;44432;49.786;22.760;2023-03-01T08:36:47;100461.57;;;0.18;77.31
58662;BME280;44432;49.786;22.760;2023-03-01T08:39:21;100460.73;;;0.24;77.15
58662;BME280;44432;49.786;22.760;2023-03-01T08:41:52;100458.14;;;0.33;77.04
58662;BME280;44432;49.786;22.760;2023-03-01T08:44:22;100453.42;;;0.43;76.76
58662;BME280;44432;49.786;22.760;2023-03-01T08:46:53;100452.02;;;0.54;76.74
58662;BME280;44432;49.786;22.760;2023-03-01T08:49:25;100453.02;;;0.66;76.26
58662;BME280;44432;49.786;22.760;2023-03-01T08:51:55;100451.21;;;0.76;76.13
58662;BME280;44432;49.786;22.760;2023-03-01T08:54:26;100450.11;;;0.85;75.86
58662;BME280;44432;49.786;22.760;2023-03-01T08:56:57;100454.71;;;0.94;75.49
58662;BME280;44432;49.786;22.760;2023-03-01T08:59:28;100454.31;;;1.02;75.18
58662;BME280;44432;49.786;22.760;2023-03-01T09:01:59;100453.09;;;1.08;74.64
58662;BME280;44432;49.786;22.760;2023-03-01T09:04:30;100458.88;;;1.16;74.12
58662;BME280;44432;49.786;22.760;2023-03-01T09:07:02;100457.75;;;1.21;73.93
58662;BME280;44432;49.786;22.760;2023-03-01T09:09:33;100454.79;;;1.30;73.57
58662;BME280;44432;49.786;22.760;2023-03-01T09:12:04;100456.31;;;1.39;73.26
58662;BME280;44432;49.786;22.760;2023-03-01T09:14:35;100456.44;;;1.48;72.81
58662;BME280;44432;49.786;22.760;2023-03-01T09:17:07;100462.88;;;1.56;71.66
58662;BME280;44432;49.786;22.760;2023-03-01T09:19:38;100461.40;;;1.59;69.87
58662;BME280;44432;49.786;22.760;2023-03-01T09:22:08;100458.30;;;1.57;68.36
58662;BME280;44432;49.786;22.760;2023-03-01T09:24:39;100451.77;;;1.56;68.17
58662;BME280;44432;49.786;22.760;2023-03-01T09:27:10;100449.67;;;1.58;67.62
58662;BME280;44432;49.786;22.760;2023-03-01T09:29:42;100448.12;;;1.62;67.18
58662;BME280;44432;49.786;22.760;2023-03-01T09:32:12;100449.08;;;1.68;66.24
58662;BME280;44432;49.786;22.760;2023-03-01T09:34:43;100446.27;;;1.70;66.00
58662;BME280;44432;49.786;22.760;2023-03-01T09:37:35;100440.77;;;1.76;66.11
58662;BME280;44432;49.786;22.760;2023-03-01T09:40:09;100447.02;;;1.82;65.75
58662;BME280;44432;49.786;22.760;2023-03-01T09:42:53;100443.77;;;1.88;66.00
58662;BME280;44432;49.786;22.760;2023-03-01T09:45:35;100439.14;;;1.95;65.42
58662;BME280;44432;49.786;22.760;2023-03-01T09:48:08;100430.39;;;2.00;65.18
58662;BME280;44432;49.786;22.760;2023-03-01T09:50:42;100424.83;;;2.06;64.98
58662;BME280;44432;49.786;22.760;2023-03-01T09:53:17;100423.14;;;2.14;65.03
58662;BME280;44432;49.786;22.760;2023-03-01T09:55:53;100424.95;;;2.20;64.98
58662;BME280;44432;49.786;22.760;2023-03-01T09:58:40;100425.55;;;2.26;64.51
58662;BME280;44432;49.786;22.760;2023-03-01T10:01:28;100422.16;;;2.33;64.24
58662;BME280;44432;49.786;22.760;2023-03-01T10:04:09;100422.51;;;2.39;63.91
58662;BME280;44432;49.786;22.760;2023-03-01T10:06:47;100419.84;;;2.48;63.80
58662;BME280;44432;49.786;22.760;2023-03-01T10:09:21;100423.11;;;2.58;64.10
58662;BME280;44432;49.786;22.760;2023-03-01T10:11:54;100416.20;;;2.68;63.82
58662;BME280;44432;49.786;22.760;2023-03-01T10:14:32;100415.09;;;2.76;63.10
58662;BME280;44432;49.786;22.760;2023-03-01T10:17:08;100413.05;;;2.82;63.25
58662;BME280;44432;49.786;22.760;2023-03-01T10:19:43;100408.30;;;2.90;63.19
58662;BME280;44432;49.786;22.760;2023-03-01T10:22:16;100401.59;;;2.95;63.20
58662;BME280;44432;49.786;22.760;2023-03-01T10:24:47;100402.48;;;3.03;62.59
58662;BME280;44432;49.786;22.760;2023-03-01T10:27:22;100401.67;;;3.04;62.39
58662;BME280;44432;49.786;22.760;2023-03-01T10:30:01;100401.65;;;3.10;62.30
58662;BME280;44432;49.786;22.760;2023-03-01T10:32:36;100400.19;;;3.14;61.74
58662;BME280;44432;49.786;22.760;2023-03-01T10:35:20;100395.59;;;3.13;61.01
58662;BME280;44432;49.786;22.760;2023-03-01T10:38:04;100390.99;;;3.10;60.83
58662;BME280;44432;49.786;22.760;2023-03-01T10:40:46;100384.63;;;3.13;61.19
58662;BME280;44432;49.786;22.760;2023-03-01T10:43:20;100383.27;;;3.18;61.18
58662;BME280;44432;49.786;22.760;2023-03-01T10:45:52;100383.02;;;3.25;61.37
58662;BME280;44432;49.786;22.760;2023-03-01T10:48:24;100374.77;;;3.32;61.02
58662;BME280;44432;49.786;22.760;2023-03-01T10:51:12;100375.42;;;3.40;60.92
58662;BME280;44432;49.786;22.760;2023-03-01T10:53:51;100374.10;;;3.45;60.56
58662;BME280;44432;49.786;22.760;2023-03-01T10:56:22;100368.91;;;3.46;60.37
58662;BME280;44432;49.786;22.760;2023-03-01T10:59:02;100369.96;;;3.52;60.21
58662;BME280;44432;49.786;22.760;2023-03-01T11:01:34;100370.16;;;3.55;60.40
58662;BME280;44432;49.786;22.760;2023-03-01T11:04:12;100368.77;;;3.59;60.15
58662;BME280;44432;49.786;22.760;2023-03-01T11:06:45;100372.26;;;3.63;59.90
58662;BME280;44432;49.786;22.760;2023-03-01T11:09:32;100367.12;;;3.62;59.32
58662;BME280;44432;49.786;22.760;2023-03-01T11:12:15;100364.12;;;3.60;58.98
58662;BME280;44432;49.786;22.760;2023-03-01T11:14:50;100361.66;;;3.59;59.44
58662;BME280;44432;49.786;22.760;2023-03-01T11:17:27;100363.10;;;3.64;59.52
58662;BME280;44432;49.786;22.760;2023-03-01T11:20:20;100361.20;;;3.68;59.38
58662;BME280;44432;49.786;22.760;2023-03-01T11:22:56;100357.59;;;3.69;58.89
58662;BME280;44432;49.786;22.760;2023-03-01T11:25:31;100357.77;;;3.67;58.54
58662;BME280;44432;49.786;22.760;2023-03-01T11:28:06;100349.23;;;3.67;58.78
58662;BME280;44432;49.786;22.760;2023-03-01T11:30:41;100346.77;;;3.69;58.60
58662;BME280;44432;49.786;22.760;2023-03-01T11:33:24;100346.17;;;3.70;57.65
58662;BME280;44432;49.786;22.760;2023-03-01T11:36:05;100349.09;;;3.71;56.73
58662;BME280;44432;49.786;22.760;2023-03-01T11:38:37;100341.41;;;3.71;55.85
58662;BME280;44432;49.786;22.760;2023-03-01T11:41:15;100344.55;;;3.75;55.46
58662;BME280;44432;49.786;22.760;2023-03-01T11:43:52;100337.14;;;3.75;54.02
58662;BME280;44432;49.786;22.760;2023-03-01T11:46:51;100336.80;;;3.74;53.41
58662;BME280;44432;49.786;22.760;2023-03-01T11:49:44;100334.09;;;3.75;52.54
58662;BME280;44432;49.786;22.760;2023-03-01T11:52:24;100332.66;;;3.75;51.36
58662;BME280;44432;49.786;22.760;2023-03-01T11:55:09;100328.40;;;3.76;51.51
58662;BME280;44432;49.786;22.760;2023-03-01T11:57:54;100327.27;;;3.77;51.08
58662;BME280;44432;49.786;22.760;2023-03-01T12:00:42;100329.22;;;3.78;50.08
58662;BME280;44432;49.786;22.760;2023-03-01T12:03:38;100321.81;;;3.81;50.09
58662;BME280;44432;49.786;22.760;2023-03-01T12:06:23;100322.19;;;3.85;48.73
58662;BME280;44432;49.786;22.760;2023-03-01T12:09:05;100317.89;;;3.86;48.03
58662;BME280;44432;49.786;22.760;2023-03-01T12:11:48;100315.44;;;3.88;46.92
58662;BME280;44432;49.786;22.760;2023-03-01T12:14:42;100306.28;;;3.87;45.68
58662;BME280;44432;49.786;22.760;2023-03-01T12:17:36;100306.67;;;3.90;47.04
58662;BME280;44432;49.786;22.760;2023-03-01T12:20:22;100302.77;;;3.93;47.24
58662;BME280;44432;49.786;22.760;2023-03-01T12:23:11;100301.06;;;3.98;47.21
58662;BME280;44432;49.786;22.760;2023-03-01T12:25:51;100291.77;;;4.01;46.56
58662;BME280;44432;49.786;22.760;2023-03-01T12:28:33;100288.93;;;4.03;46.78
58662;BME280;44432;49.786;22.760;2023-03-01T12:31:20;100290.20;;;4.08;46.96
58662;BME280;44432;49.786;22.760;2023-03-01T12:34:06;100295.26;;;4.09;46.44
58662;BME280;44432;49.786;22.760;2023-03-01T12:36:54;100288.96;;;4.11;47.35
58662;BME280;44432;49.786;22.760;2023-03-01T12:39:42;100288.36;;;4.17;47.81
58662;BME280;44432;49.786;22.760;2023-03-01T12:42:27;100281.95;;;4.22;47.80
58662;BME280;44432;49.786;22.760;2023-03-01T12:45:29;100279.77;;;4.29;47.70
58662;BME280;44432;49.786;22.760;2023-03-01T12:48:13;100279.12;;;4.34;47.74
58662;BME280;44432;49.786;22.760;2023-03-01T12:50:50;100278.98;;;4.37;47.83
58662;BME280;44432;49.786;22.760;2023-03-01T12:53:24;100274.23;;;4.39;47.60
58662;BME280;44432;49.786;22.760;2023-03-01T12:55:58;100273.96;;;4.40;47.18
58662;BME280;44432;49.786;22.760;2023-03-01T12:58:33;100267.08;;;4.41;47.38
58662;BME280;44432;49.786;22.760;2023-03-01T13:01:16;100266.64;;;4.44;47.11
58662;BME280;44432;49.786;22.760;2023-03-01T13:04:10;100266.21;;;4.47;46.71
58662;BME280;44432;49.786;22.760;2023-03-01T13:06:51;100265.88;;;4.43;44.57
58662;BME280;44432;49.786;22.760;2023-03-01T13:09:31;100261.30;;;4.42;44.78
58662;BME280;44432;49.786;22.760;2023-03-01T13:15:03;100258.08;;;4.44;43.93
58662;BME280;44432;49.786;22.760;2023-03-01T13:17:43;100259.63;;;4.44;44.84
58662;BME280;44432;49.786;22.760;2023-03-01T13:20:19;100262.15;;;4.49;44.86
58662;BME280;44432;49.786;22.760;2023-03-01T13:23:02;100265.21;;;4.48;45.24